To NAV CANADA Home Page Login to a new session Search on AWWS site Disclaimer Vers la page française équivalente Tips FAQ What's new on the site To the Forecasts and Observations / NOTAM section To "File a Flight Plan" website Publications and other links Update of the User's profile FIC Telephone Numbers My Weather Data Folder Route Weather Data Regional Weather Data Local Weather Data To the Forecasts and Observations / NOTAM section
Request Generated 03/19/2019 at 23:03:40 UTC . Weather information available at that time is displayed.

METAR/TAF

WRIGLEY/NT    (show WxCam)

LWIS CYWY 192300Z AUTO 14003KT 18/M06 A2973=
METAR CYWY 192200Z 18004KT 15SM FEW250 16/M04 A2974 RMK CI2 16.5/-0.3/0/35/LAST OBS/NEXT 201400 UTC SLP079 DENSITY ALT 900FT=
METAR CYWY 192100Z 16005KT 15SM FEW250 13/M04 A2974 RMK CI2 SLP081 DENSITY ALT 600FT=

CYWY - No TAF is issued for this station

Your time UTC time
Weather data provided by Environment Canada and NAV CANADA